sensor_id;sensor_type;location;lat;lon;timestamp;temperature;humidity
29093;DHT22;16167;48.768;14.984;2023-02-03T00:01:21;0.20;25.20
29093;DHT22;16167;48.768;14.984;2023-02-03T00:03:49;0.30;23.80
29093;DHT22;16167;48.768;14.984;2023-02-03T00:06:17;0.30;25.40
29093;DHT22;16167;48.768;14.984;2023-02-03T00:08:45;0.20;26.40
29093;DHT22;16167;48.768;14.984;2023-02-03T00:11:14;0.20;26.00
29093;DHT22;16167;48.768;14.984;2023-02-03T00:13:43;0.30;26.20
29093;DHT22;16167;48.768;14.984;2023-02-03T00:16:11;0.20;26.30
29093;DHT22;16167;48.768;14.984;2023-02-03T00:18:39;0.20;26.10
29093;DHT22;16167;48.768;14.984;2023-02-03T00:21:07;0.20;28.10
29093;DHT22;16167;48.768;14.984;2023-02-03T00:23:35;0.20;32.80
29093;DHT22;16167;48.768;14.984;2023-02-03T00:26:07;0.30;31.20
29093;DHT22;16167;48.768;14.984;2023-02-03T00:28:36;0.30;29.60
29093;DHT22;16167;48.768;14.984;2023-02-03T00:31:07;0.30;25.80
29093;DHT22;16167;48.768;14.984;2023-02-03T00:33:41;0.40;28.30
29093;DHT22;16167;48.768;14.984;2023-02-03T00:36:10;0.40;28.30
29093;DHT22;16167;48.768;14.984;2023-02-03T00:38:38;0.50;30.20
29093;DHT22;16167;48.768;14.984;2023-02-03T00:41:06;0.50;34.60
29093;DHT22;16167;48.768;14.984;2023-02-03T00:43:34;0.50;37.00
29093;DHT22;16167;48.768;14.984;2023-02-03T00:46:03;0.50;41.60
29093;DHT22;16167;48.768;14.984;2023-02-03T00:48:32;0.50;44.90
29093;DHT22;16167;48.768;14.984;2023-02-03T00:51:00;0.60;46.90
29093;DHT22;16167;48.768;14.984;2023-02-03T00:53:28;0.60;48.70
29093;DHT22;16167;48.768;14.984;2023-02-03T00:55:56;0.70;48.90
29093;DHT22;16167;48.768;14.984;2023-02-03T00:58:24;0.70;49.20
29093;DHT22;16167;48.768;14.984;2023-02-03T01:00:53;0.70;50.50
29093;DHT22;16167;48.768;14.984;2023-02-03T01:03:22;0.70;52.50
29093;DHT22;16167;48.768;14.984;2023-02-03T01:05:51;0.70;54.20
29093;DHT22;16167;48.768;14.984;2023-02-03T01:08:19;0.70;54.90
29093;DHT22;16167;48.768;14.984;2023-02-03T01:10:49;0.70;56.90
29093;DHT22;16167;48.768;14.984;2023-02-03T01:13:17;0.80;55.50
29093;DHT22;16167;48.768;14.984;2023-02-03T01:15:45;0.80;55.50
29093;DHT22;16167;48.768;14.984;2023-02-03T01:18:14;0.90;59.10
29093;DHT22;16167;48.768;14.984;2023-02-03T01:20:42;0.90;58.60
29093;DHT22;16167;48.768;14.984;2023-02-03T01:23:11;0.90;58.30
29093;DHT22;16167;48.768;14.984;2023-02-03T01:25:39;0.90;60.10
29093;DHT22;16167;48.768;14.984;2023-02-03T01:28:08;0.90;60.90
29093;DHT22;16167;48.768;14.984;2023-02-03T01:30:36;1.00;59.50
29093;DHT22;16167;48.768;14.984;2023-02-03T01:33:04;1.00;64.20
29093;DHT22;16167;48.768;14.984;2023-02-03T01:35:33;1.00;64.10
29093;DHT22;16167;48.768;14.984;2023-02-03T01:38:02;1.00;66.40
29093;DHT22;16167;48.768;14.984;2023-02-03T01:40:31;1.10;66.50
29093;DHT22;16167;48.768;14.984;2023-02-03T01:42:59;1.10;68.50
29093;DHT22;16167;48.768;14.984;2023-02-03T01:45:27;1.10;69.70
29093;DHT22;16167;48.768;14.984;2023-02-03T01:47:56;1.10;71.90
29093;DHT22;16167;48.768;14.984;2023-02-03T01:50:28;1.10;72.50
29093;DHT22;16167;48.768;14.984;2023-02-03T01:55:47;1.10;76.60
29093;DHT22;16167;48.768;14.984;2023-02-03T01:58:38;1.10;78.60
29093;DHT22;16167;48.768;14.984;2023-02-03T02:01:07;1.10;83.40
29093;DHT22;16167;48.768;14.984;2023-02-03T02:03:45;1.00;84.10
29093;DHT22;16167;48.768;14.984;2023-02-03T02:06:16;1.00;89.50
29093;DHT22;16167;48.768;14.984;2023-02-03T02:08:47;1.00;91.10
29093;DHT22;16167;48.768;14.984;2023-02-03T02:11:18;1.00;92.50
29093;DHT22;16167;48.768;14.984;2023-02-03T02:13:48;1.00;94.00
29093;DHT22;16167;48.768;14.984;2023-02-03T02:16:21;1.00;94.40
29093;DHT22;16167;48.768;14.984;2023-02-03T02:19:05;0.90;95.70
29093;DHT22;16167;48.768;14.984;2023-02-03T02:21:56;0.90;96.90
29093;DHT22;16167;48.768;14.984;2023-02-03T02:31:10;0.80;99.60
29093;DHT22;16167;48.768;14.984;2023-02-03T02:33:48;0.80;99.90
29093;DHT22;16167;48.768;14.984;2023-02-03T02:36:25;0.80;99.90
29093;DHT22;16167;48.768;14.984;2023-02-03T02:38:59;0.80;99.90
29093;DHT22;16167;48.768;14.984;2023-02-03T02:41:34;0.80;99.90
29093;DHT22;16167;48.768;14.984;2023-02-03T02:44:10;0.80;99.90
29093;DHT22;16167;48.768;14.984;2023-02-03T02:46:43;0.80;99.90
29093;DHT22;16167;48.768;14.984;2023-02-03T02:49:18;0.80;99.90
29093;DHT22;16167;48.768;14.984;2023-02-03T02:51:48;0.90;99.90
29093;DHT22;16167;48.768;14.984;2023-02-03T02:54:20;0.90;99.90
29093;DHT22;16167;48.768;14.984;2023-02-03T02:56:53;0.80;99.90
29093;DHT22;16167;48.768;14.984;2023-02-03T02:59:22;0.90;99.90
29093;DHT22;16167;48.768;14.984;2023-02-03T03:01:50;0.90;99.90
29093;DHT22;16167;48.768;14.984;2023-02-03T03:04:23;0.90;99.90
29093;DHT22;16167;48.768;14.984;2023-02-03T03:06:56;1.00;99.90
29093;DHT22;16167;48.768;14.984;2023-02-03T03:09:29;1.00;99.90
29093;DHT22;16167;48.768;14.984;2023-02-03T03:12:05;1.00;99.90
29093;DHT22;16167;48.768;14.984;2023-02-03T03:14:35;1.00;99.90
29093;DHT22;16167;48.768;14.984;2023-02-03T03:17:08;1.00;99.90
29093;DHT22;16167;48.768;14.984;2023-02-03T03:19:42;1.00;99.90
29093;DHT22;16167;48.768;14.984;2023-02-03T03:22:15;1.00;99.90
29093;DHT22;16167;48.768;14.984;2023-02-03T03:24:48;0.90;99.90
29093;DHT22;16167;48.768;14.984;2023-02-03T03:27:19;0.90;99.90
29093;DHT22;16167;48.768;14.984;2023-02-03T03:29:51;0.90;99.90
29093;DHT22;16167;48.768;14.984;2023-02-03T03:32:21;0.90;99.90
29093;DHT22;16167;48.768;14.984;2023-02-03T03:34:51;1.00;99.90
29093;DHT22;16167;48.768;14.984;2023-02-03T03:37:23;1.00;99.90
29093;DHT22;16167;48.768;14.984;2023-02-03T03:39:56;1.00;99.90
29093;DHT22;16167;48.768;14.984;2023-02-03T03:42:27;1.10;99.90
29093;DHT22;16167;48.768;14.984;2023-02-03T03:45:02;1.00;99.90
29093;DHT22;16167;48.768;14.984;2023-02-03T03:47:36;1.00;99.90
29093;DHT22;16167;48.768;14.984;2023-02-03T03:50:10;1.00;99.90
29093;DHT22;16167;48.768;14.984;2023-02-03T03:52:39;1.00;99.90
29093;DHT22;16167;48.768;14.984;2023-02-03T03:55:09;1.10;99.90
29093;DHT22;16167;48.768;14.984;2023-02-03T03:57:40;1.20;99.90
29093;DHT22;16167;48.768;14.984;2023-02-03T04:00:14;1.30;99.90
29093;DHT22;16167;48.768;14.984;2023-02-03T04:02:46;1.40;99.60
29093;DHT22;16167;48.768;14.984;2023-02-03T04:05:18;1.40;98.80
29093;DHT22;16167;48.768;14.984;2023-02-03T04:07:47;1.50;98.60
29093;DHT22;16167;48.768;14.984;2023-02-03T04:10:22;1.50;97.00
29093;DHT22;16167;48.768;14.984;2023-02-03T04:12:52;1.60;96.00
29093;DHT22;16167;48.768;14.984;2023-02-03T04:15:20;1.70;95.30
29093;DHT22;16167;48.768;14.984;2023-02-03T04:17:48;1.80;93.90
29093;DHT22;16167;48.768;14.984;2023-02-03T04:20:18;1.80;94.80
29093;DHT22;16167;48.768;14.984;2023-02-03T04:22:46;1.80;94.60
29093;DHT22;16167;48.768;14.984;2023-02-03T04:25:14;1.80;94.50
29093;DHT22;16167;48.768;14.984;2023-02-03T04:27:43;1.80;93.30
29093;DHT22;16167;48.768;14.984;2023-02-03T04:30:12;1.90;92.30
29093;DHT22;16167;48.768;14.984;2023-02-03T04:32:40;1.90;93.10
29093;DHT22;16167;48.768;14.984;2023-02-03T04:35:08;1.90;92.60
29093;DHT22;16167;48.768;14.984;2023-02-03T04:37:38;1.90;93.50
29093;DHT22;16167;48.768;14.984;2023-02-03T04:40:06;1.90;94.40
29093;DHT22;16167;48.768;14.984;2023-02-03T04:42:35;1.90;93.70
29093;DHT22;16167;48.768;14.984;2023-02-03T04:45:05;1.90;94.90
29093;DHT22;16167;48.768;14.984;2023-02-03T04:47:34;2.00;93.20
29093;DHT22;16167;48.768;14.984;2023-02-03T04:50:03;2.00;93.40
29093;DHT22;16167;48.768;14.984;2023-02-03T04:52:31;1.90;94.10
29093;DHT22;16167;48.768;14.984;2023-02-03T04:55:00;1.90;95.20
29093;DHT22;16167;48.768;14.984;2023-02-03T04:57:30;2.00;94.20
29093;DHT22;16167;48.768;14.984;2023-02-03T04:59:58;2.00;94.00
29093;DHT22;16167;48.768;14.984;2023-02-03T05:02:26;2.00;94.30
29093;DHT22;16167;48.768;14.984;2023-02-03T05:04:54;2.00;93.60
29093;DHT22;16167;48.768;14.984;2023-02-03T05:07:22;2.00;93.10
29093;DHT22;16167;48.768;14.984;2023-02-03T05:09:50;2.00;93.50
29093;DHT22;16167;48.768;14.984;2023-02-03T05:12:20;2.00;93.70
29093;DHT22;16167;48.768;14.984;2023-02-03T05:14:48;2.00;94.40
29093;DHT22;16167;48.768;14.984;2023-02-03T05:17:16;2.00;94.00
29093;DHT22;16167;48.768;14.984;2023-02-03T05:19:44;2.10;93.30
29093;DHT22;16167;48.768;14.984;2023-02-03T05:22:12;2.10;92.70
29093;DHT22;16167;48.768;14.984;2023-02-03T05:24:40;2.10;92.80
29093;DHT22;16167;48.768;14.984;2023-02-03T05:27:08;2.10;92.90
29093;DHT22;16167;48.768;14.984;2023-02-03T05:29:38;2.10;91.90
29093;DHT22;16167;48.768;14.984;2023-02-03T05:32:06;2.20;91.10
29093;DHT22;16167;48.768;14.984;2023-02-03T05:34:34;2.10;91.70
29093;DHT22;16167;48.768;14.984;2023-02-03T05:37:02;2.10;92.70
29093;DHT22;16167;48.768;14.984;2023-02-03T05:39:30;2.10;92.50
29093;DHT22;16167;48.768;14.984;2023-02-03T05:41:58;2.10;92.90
29093;DHT22;16167;48.768;14.984;2023-02-03T05:44:26;2.10;92.90
29093;DHT22;16167;48.768;14.984;2023-02-03T05:46:57;2.10;92.70
29093;DHT22;16167;48.768;14.984;2023-02-03T05:49:26;2.10;93.20
29093;DHT22;16167;48.768;14.984;2023-02-03T05:51:54;2.20;92.70
29093;DHT22;16167;48.768;14.984;2023-02-03T05:54:22;2.10;93.30
29093;DHT22;16167;48.768;14.984;2023-02-03T05:56:50;2.20;92.40
29093;DHT22;16167;48.768;14.984;2023-02-03T05:59:19;2.20;92.00
29093;DHT22;16167;48.768;14.984;2023-02-03T06:01:47;2.20;91.80
29093;DHT22;16167;48.768;14.984;2023-02-03T06:04:16;2.20;91.20
29093;DHT22;16167;48.768;14.984;2023-02-03T06:06:45;2.10;92.70
29093;DHT22;16167;48.768;14.984;2023-02-03T06:09:13;2.10;93.30
29093;DHT22;16167;48.768;14.984;2023-02-03T06:11:41;2.20;93.30
29093;DHT22;16167;48.768;14.984;2023-02-03T06:14:10;2.20;92.60
29093;DHT22;16167;48.768;14.984;2023-02-03T06:16:38;2.20;92.40
29093;DHT22;16167;48.768;14.984;2023-02-03T06:19:06;2.20;90.30
29093;DHT22;16167;48.768;14.984;2023-02-03T06:21:35;2.30;90.20
29093;DHT22;16167;48.768;14.984;2023-02-03T06:24:04;2.30;90.30
29093;DHT22;16167;48.768;14.984;2023-02-03T06:26:32;2.30;90.00
29093;DHT22;16167;48.768;14.984;2023-02-03T06:29:00;2.30;89.20
29093;DHT22;16167;48.768;14.984;2023-02-03T06:31:28;2.30;87.70
29093;DHT22;16167;48.768;14.984;2023-02-03T06:33:57;2.40;83.20
29093;DHT22;16167;48.768;14.984;2023-02-03T06:36:28;2.40;81.30
29093;DHT22;16167;48.768;14.984;2023-02-03T06:38:57;2.50;79.30
29093;DHT22;16167;48.768;14.984;2023-02-03T06:41:25;2.60;77.00
29093;DHT22;16167;48.768;14.984;2023-02-03T06:43:56;2.60;78.60
29093;DHT22;16167;48.768;14.984;2023-02-03T06:46:24;2.60;69.90
29093;DHT22;16167;48.768;14.984;2023-02-03T06:48:55;2.70;66.10
29093;DHT22;16167;48.768;14.984;2023-02-03T06:51:23;2.80;65.30
29093;DHT22;16167;48.768;14.984;2023-02-03T06:53:51;2.80;66.00
29093;DHT22;16167;48.768;14.984;2023-02-03T06:56:21;2.80;66.70
29093;DHT22;16167;48.768;14.984;2023-02-03T06:58:49;2.80;65.90
29093;DHT22;16167;48.768;14.984;2023-02-03T07:01:17;2.90;65.60
29093;DHT22;16167;48.768;14.984;2023-02-03T07:03:45;2.90;64.20
29093;DHT22;16167;48.768;14.984;2023-02-03T07:06:14;2.90;65.60
29093;DHT22;16167;48.768;14.984;2023-02-03T07:08:42;2.90;62.90
29093;DHT22;16167;48.768;14.984;2023-02-03T07:11:10;2.90;63.90
29093;DHT22;16167;48.768;14.984;2023-02-03T07:13:40;2.90;65.90
29093;DHT22;16167;48.768;14.984;2023-02-03T07:16:08;2.90;64.60
29093;DHT22;16167;48.768;14.984;2023-02-03T07:18:36;3.00;55.10
29093;DHT22;16167;48.768;14.984;2023-02-03T07:21:14;3.10;54.00
29093;DHT22;16167;48.768;14.984;2023-02-03T07:23:45;3.10;54.70
29093;DHT22;16167;48.768;14.984;2023-02-03T07:26:13;3.10;55.50
29093;DHT22;16167;48.768;14.984;2023-02-03T07:28:42;3.10;54.10
29093;DHT22;16167;48.768;14.984;2023-02-03T07:31:10;3.10;53.10
29093;DHT22;16167;48.768;14.984;2023-02-03T07:33:39;3.20;52.80
29093;DHT22;16167;48.768;14.984;2023-02-03T07:36:08;3.30;47.70
29093;DHT22;16167;48.768;14.984;2023-02-03T07:38:37;3.30;46.60
29093;DHT22;16167;48.768;14.984;2023-02-03T07:41:05;3.30;46.50
29093;DHT22;16167;48.768;14.984;2023-02-03T07:43:34;3.30;44.50
29093;DHT22;16167;48.768;14.984;2023-02-03T07:46:03;3.40;42.70
29093;DHT22;16167;48.768;14.984;2023-02-03T07:48:32;3.30;45.30
29093;DHT22;16167;48.768;14.984;2023-02-03T07:51:00;3.40;41.80
29093;DHT22;16167;48.768;14.984;2023-02-03T07:53:28;3.40;45.00
29093;DHT22;16167;48.768;14.984;2023-02-03T07:55:59;3.50;41.10
29093;DHT22;16167;48.768;14.984;2023-02-03T07:58:27;3.50;40.60
29093;DHT22;16167;48.768;14.984;2023-02-03T08:00:55;3.60;35.50
29093;DHT22;16167;48.768;14.984;2023-02-03T08:03:25;3.70;35.30
29093;DHT22;16167;48.768;14.984;2023-02-03T08:05:53;3.70;34.30
29093;DHT22;16167;48.768;14.984;2023-02-03T08:08:21;3.70;34.80
29093;DHT22;16167;48.768;14.984;2023-02-03T08:10:49;3.70;35.60
29093;DHT22;16167;48.768;14.984;2023-02-03T08:13:17;3.80;37.00
29093;DHT22;16167;48.768;14.984;2023-02-03T08:15:46;3.80;32.50
29093;DHT22;16167;48.768;14.984;2023-02-03T08:18:14;3.80;27.20
29093;DHT22;16167;48.768;14.984;2023-02-03T08:20:45;3.90;26.40
29093;DHT22;16167;48.768;14.984;2023-02-03T08:23:14;3.90;27.00
29093;DHT22;16167;48.768;14.984;2023-02-03T08:25:42;4.00;19.40
29093;DHT22;16167;48.768;14.984;2023-02-03T08:28:10;4.10;14.50
29093;DHT22;16167;48.768;14.984;2023-02-03T08:30:38;4.10;11.90
29093;DHT22;16167;48.768;14.984;2023-02-03T08:33:08;4.20;8.40
29093;DHT22;16167;48.768;14.984;2023-02-03T08:35:36;4.20;5.80
29093;DHT22;16167;48.768;14.984;2023-02-03T08:38:07;4.30;11.20
29093;DHT22;16167;48.768;14.984;2023-02-03T08:40:35;4.20;6.50
29093;DHT22;16167;48.768;14.984;2023-02-03T08:43:03;4.30;2.20
29093;DHT22;16167;48.768;14.984;2023-02-03T08:45:31;4.30;1.60
29093;DHT22;16167;48.768;14.984;2023-02-03T08:47:59;4.40;2.90
29093;DHT22;16167;48.768;14.984;2023-02-03T08:50:27;4.40;1.00
29093;DHT22;16167;48.768;14.984;2023-02-03T08:52:56;4.40;1.00
29093;DHT22;16167;48.768;14.984;2023-02-03T08:55:25;4.50;1.00
29093;DHT22;16167;48.768;14.984;2023-02-03T08:57:54;4.60;1.00
29093;DHT22;16167;48.768;14.984;2023-02-03T09:00:22;4.70;1.00
29093;DHT22;16167;48.768;14.984;2023-02-03T09:02:50;4.60;1.00
29093;DHT22;16167;48.768;14.984;2023-02-03T09:05:18;4.60;1.00
29093;DHT22;16167;48.768;14.984;2023-02-03T09:07:46;4.60;1.00
29093;DHT22;16167;48.768;14.984;2023-02-03T09:10:15;4.60;1.00
29093;DHT22;16167;48.768;14.984;2023-02-03T09:12:45;4.60;1.00
29093;DHT22;16167;48.768;14.984;2023-02-03T09:15:13;4.70;1.00
29093;DHT22;16167;48.768;14.984;2023-02-03T09:17:41;4.70;1.00
29093;DHT22;16167;48.768;14.984;2023-02-03T09:20:10;4.70;1.00
29093;DHT22;16167;48.768;14.984;2023-02-03T09:22:39;4.80;1.00
29093;DHT22;16167;48.768;14.984;2023-02-03T09:25:07;4.90;1.00
29093;DHT22;16167;48.768;14.984;2023-02-03T09:27:36;4.90;1.00
29093;DHT22;16167;48.768;14.984;2023-02-03T09:30:06;4.90;1.00
29093;DHT22;16167;48.768;14.984;2023-02-03T09:32:34;5.00;1.00
29093;DHT22;16167;48.768;14.984;2023-02-03T09:35:03;5.10;1.00
29093;DHT22;16167;48.768;14.984;2023-02-03T09:37:31;5.00;1.00
29093;DHT22;16167;48.768;14.984;2023-02-03T09:39:59;5.10;1.00
29093;DHT22;16167;48.768;14.984;2023-02-03T09:42:43;5.10;1.00
29093;DHT22;16167;48.768;14.984;2023-02-03T09:45:21;5.00;1.00
29093;DHT22;16167;48.768;14.984;2023-02-03T09:47:53;5.00;1.00
29093;DHT22;16167;48.768;14.984;2023-02-03T09:50:24;5.00;1.00
29093;DHT22;16167;48.768;14.984;2023-02-03T09:52:54;5.00;1.00
29093;DHT22;16167;48.768;14.984;2023-02-03T09:55:27;5.10;1.00
29093;DHT22;16167;48.768;14.984;2023-02-03T09:58:02;5.10;1.00
29093;DHT22;16167;48.768;14.984;2023-02-03T10:00:35;5.10;1.00
29093;DHT22;16167;48.768;14.984;2023-02-03T10:03:07;5.00;1.00
29093;DHT22;16167;48.768;14.984;2023-02-03T10:05:51;5.00;1.00
29093;DHT22;16167;48.768;14.984;2023-02-03T10:08:34;4.90;1.00
29093;DHT22;16167;48.768;14.984;2023-02-03T10:11:12;4.90;1.00
29093;DHT22;16167;48.768;14.984;2023-02-03T10:13:49;4.80;1.00
29093;DHT22;16167;48.768;14.984;2023-02-03T10:16:32;4.80;1.00
29093;DHT22;16167;48.768;14.984;2023-02-03T10:19:08;4.70;1.00
29093;DHT22;16167;48.768;14.984;2023-02-03T10:21:41;4.70;1.00
29093;DHT22;16167;48.768;14.984;2023-02-03T10:24:14;4.70;1.00
29093;DHT22;16167;48.768;14.984;2023-02-03T10:26:43;4.60;1.00
29093;DHT22;16167;48.768;14.984;2023-02-03T10:29:18;4.60;1.00
29093;DHT22;16167;48.768;14.984;2023-02-03T10:31:48;4.60;1.00
29093;DHT22;16167;48.768;14.984;2023-02-03T10:34:17;4.70;1.00
29093;DHT22;16167;48.768;14.984;2023-02-03T10:36:53;4.80;1.00
29093;DHT22;16167;48.768;14.984;2023-02-03T10:39:30;4.80;1.00
29093;DHT22;16167;48.768;14.984;2023-02-03T10:41:59;4.90;1.00
29093;DHT22;16167;48.768;14.984;2023-02-03T10:44:35;4.90;1.00
29093;DHT22;16167;48.768;14.984;2023-02-03T10:47:20;4.90;1.00
29093;DHT22;16167;48.768;14.984;2023-02-03T10:49:51;5.10;1.00
29093;DHT22;16167;48.768;14.984;2023-02-03T10:52:25;5.00;1.00
29093;DHT22;16167;48.768;14.984;2023-02-03T10:54:54;5.00;1.00
29093;DHT22;16167;48.768;14.984;2023-02-03T10:57:27;5.00;1.00
29093;DHT22;16167;48.768;14.984;2023-02-03T11:00:10;5.00;1.00
29093;DHT22;16167;48.768;14.984;2023-02-03T11:02:56;5.00;1.00
29093;DHT22;16167;48.768;14.984;2023-02-03T11:05:25;5.00;1.00
29093;DHT22;16167;48.768;14.984;2023-02-03T11:07:54;4.90;1.00
29093;DHT22;16167;48.768;14.984;2023-02-03T11:10:27;4.90;1.00
29093;DHT22;16167;48.768;14.984;2023-02-03T11:13:18;4.80;1.00
29093;DHT22;16167;48.768;14.984;2023-02-03T11:15:54;4.90;1.00
29093;DHT22;16167;48.768;14.984;2023-02-03T11:21:23;4.80;1.00
29093;DHT22;16167;48.768;14.984;2023-02-03T11:24:00;4.70;1.00
29093;DHT22;16167;48.768;14.984;2023-02-03T11:26:32;4.70;1.00
29093;DHT22;16167;48.768;14.984;2023-02-03T11:29:02;4.70;1.00
29093;DHT22;16167;48.768;14.984;2023-02-03T11:31:33;4.70;1.00
29093;DHT22;16167;48.768;14.984;2023-02-03T11:34:06;4.70;1.00
29093;DHT22;16167;48.768;14.984;2023-02-03T11:36:40;4.80;1.00
29093;DHT22;16167;48.768;14.984;2023-02-03T11:39:13;4.80;1.00
29093;DHT22;16167;48.768;14.984;2023-02-03T11:41:43;4.80;1.00
29093;DHT22;16167;48.768;14.984;2023-02-03T11:44:15;4.80;1.00
29093;DHT22;16167;48.768;14.984;2023-02-03T11:46:45;4.80;1.00
29093;DHT22;16167;48.768;14.984;2023-02-03T11:49:41;4.80;1.00
29093;DHT22;16167;48.768;14.984;2023-02-03T11:55:23;4.70;1.00
29093;DHT22;16167;48.768;14.984;2023-02-03T11:58:33;4.80;1.00
29093;DHT22;16167;48.768;14.984;2023-02-03T12:01:12;4.80;1.00
29093;DHT22;16167;48.768;14.984;2023-02-03T12:04:08;4.80;1.00
29093;DHT22;16167;48.768;14.984;2023-02-03T12:07:18;4.80;1.00
29093;DHT22;16167;48.768;14.984;2023-02-03T12:09:52;4.70;1.00
29093;DHT22;16167;48.768;14.984;2023-02-03T12:12:44;4.80;1.00
29093;DHT22;16167;48.768;14.984;2023-02-03T12:15:37;4.80;1.00
29093;DHT22;16167;48.768;14.984;2023-02-03T12:18:21;4.80;1.00
29093;DHT22;16167;48.768;14.984;2023-02-03T12:20:58;4.80;1.00
29093;DHT22;16167;48.768;14.984;2023-02-03T12:23:39;4.80;1.00
29093;DHT22;16167;48.768;14.984;2023-02-03T12:26:16;4.80;1.00
29093;DHT22;16167;48.768;14.984;2023-02-03T12:28:52;4.80;1.00
29093;DHT22;16167;48.768;14.984;2023-02-03T12:31:27;4.80;1.00
29093;DHT22;16167;48.768;14.984;2023-02-03T12:34:03;4.80;1.00
29093;DHT22;16167;48.768;14.984;2023-02-03T12:36:36;4.80;1.00
29093;DHT22;16167;48.768;14.984;2023-02-03T12:39:15;4.90;1.00
29093;DHT22;16167;48.768;14.984;2023-02-03T12:41:50;4.90;1.00
29093;DHT22;16167;48.768;14.984;2023-02-03T12:44:21;4.80;1.00
29093;DHT22;16167;48.768;14.984;2023-02-03T12:46:56;4.80;1.00
29093;DHT22;16167;48.768;14.984;2023-02-03T12:49:35;4.80;1.00
29093;DHT22;16167;48.768;14.984;2023-02-03T12:52:15;4.80;1.00
29093;DHT22;16167;48.768;14.984;2023-02-03T12:54:51;4.80;1.00
29093;DHT22;16167;48.768;14.984;2023-02-03T12:57:24;4.70;1.00
29093;DHT22;16167;48.768;14.984;2023-02-03T13:00:07;4.70;1.00
29093;DHT22;16167;48.768;14.984;2023-02-03T13:02:41;4.60;1.00
29093;DHT22;16167;48.768;14.984;2023-02-03T13:05:19;4.60;1.00
29093;DHT22;16167;48.768;14.984;2023-02-03T13:07:52;4.60;1.00
29093;DHT22;16167;48.768;14.984;2023-02-03T13:10:28;4.50;1.00
29093;DHT22;16167;48.768;14.984;2023-02-03T13:12:59;4.40;3.50
29093;DHT22;16167;48.768;14.984;2023-02-03T13:15:30;4.30;12.20
29093;DHT22;16167;48.768;14.984;2023-02-03T13:18:06;4.20;13.60
29093;DHT22;16167;48.768;14.984;2023-02-03T13:20:36;4.20;20.00
29093;DHT22;16167;48.768;14.984;2023-02-03T13:23:06;4.10;22.60
29093;DHT22;16167;48.768;14.984;2023-02-03T13:25:46;4.10;22.90
29093;DHT22;16167;48.768;14.984;2023-02-03T13:28:25;4.10;21.70
29093;DHT22;16167;48.768;14.984;2023-02-03T13:31:15;4.10;26.60
29093;DHT22;16167;48.768;14.984;2023-02-03T13:40:02;4.00;32.80
29093;DHT22;16167;48.768;14.984;2023-02-03T13:42:37;3.90;35.80
29093;DHT22;16167;48.768;14.984;2023-02-03T13:45:14;3.90;40.00
29093;DHT22;16167;48.768;14.984;2023-02-03T13:47:46;3.90;34.80
29093;DHT22;16167;48.768;14.984;2023-02-03T13:50:20;3.90;37.50
29093;DHT22;16167;48.768;14.984;2023-02-03T13:52:55;3.90;33.70
29093;DHT22;16167;48.768;14.984;2023-02-03T13:55:51;3.90;38.70
29093;DHT22;16167;48.768;14.984;2023-02-03T13:58:23;3.90;27.50
29093;DHT22;16167;48.768;14.984;2023-02-03T14:04:01;3.90;38.10
29093;DHT22;16167;48.768;14.984;2023-02-03T14:06:54;3.90;35.20
29093;DHT22;16167;48.768;14.984;2023-02-03T14:09:46;3.90;34.40
29093;DHT22;16167;48.768;14.984;2023-02-03T14:12:33;4.00;22.00
29093;DHT22;16167;48.768;14.984;2023-02-03T14:15:22;4.10;25.50
29093;DHT22;16167;48.768;14.984;2023-02-03T14:20:54;4.00;26.40
29093;DHT22;16167;48.768;14.984;2023-02-03T14:23:33;4.00;24.60
29093;DHT22;16167;48.768;14.984;2023-02-03T14:26:05;4.00;28.70
29093;DHT22;16167;48.768;14.984;2023-02-03T14:28:38;4.00;33.00
29093;DHT22;16167;48.768;14.984;2023-02-03T14:31:11;3.90;40.10
29093;DHT22;16167;48.768;14.984;2023-02-03T14:34:02;3.90;37.20
29093;DHT22;16167;48.768;14.984;2023-02-03T14:36:35;3.80;40.90
29093;DHT22;16167;48.768;14.984;2023-02-03T14:48:50;3.80;45.50
29093;DHT22;16167;48.768;14.984;2023-02-03T14:51:29;3.80;48.90
29093;DHT22;16167;48.768;14.984;2023-02-03T14:54:09;3.70;51.70
29093;DHT22;16167;48.768;14.984;2023-02-03T14:56:46;3.70;56.80
29093;DHT22;16167;48.768;14.984;2023-02-03T14:59:38;3.70;56.50
29093;DHT22;16167;48.768;14.984;2023-02-03T15:02:11;3.70;56.40
29093;DHT22;16167;48.768;14.984;2023-02-03T15:04:42;3.60;57.00
29093;DHT22;16167;48.768;14.984;2023-02-03T15:07:33;3.60;59.80
29093;DHT22;16167;48.768;14.984;2023-02-03T15:10:02;3.50;64.50
29093;DHT22;16167;48.768;14.984;2023-02-03T15:12:34;3.50;59.00
29093;DHT22;16167;48.768;14.984;2023-02-03T15:15:28;3.50;59.80
29093;DHT22;16167;48.768;14.984;2023-02-03T15:17:59;3.50;62.40
29093;DHT22;16167;48.768;14.984;2023-02-03T15:20:35;3.50;61.00
29093;DHT22;16167;48.768;14.984;2023-02-03T15:23:17;3.50;56.90
29093;DHT22;16167;48.768;14.984;2023-02-03T15:25:51;3.60;56.80
29093;DHT22;16167;48.768;14.984;2023-02-03T15:28:21;3.70;49.50
29093;DHT22;16167;48.768;14.984;2023-02-03T15:30:53;3.70;49.60
29093;DHT22;16167;48.768;14.984;2023-02-03T15:33:23;3.80;49.50
29093;DHT22;16167;48.768;14.984;2023-02-03T15:35:55;3.70;41.70
29093;DHT22;16167;48.768;14.984;2023-02-03T15:38:26;3.90;37.70
29093;DHT22;16167;48.768;14.984;2023-02-03T15:40:56;3.90;41.60
29093;DHT22;16167;48.768;14.984;2023-02-03T15:43:29;3.90;32.50
29093;DHT22;16167;48.768;14.984;2023-02-03T15:46:04;4.00;32.60
29093;DHT22;16167;48.768;14.984;2023-02-03T15:48:40;4.10;29.30
29093;DHT22;16167;48.768;14.984;2023-02-03T15:51:14;4.00;34.20
29093;DHT22;16167;48.768;14.984;2023-02-03T15:53:47;4.00;28.20
29093;DHT22;16167;48.768;14.984;2023-02-03T15:56:21;4.10;24.20
29093;DHT22;16167;48.768;14.984;2023-02-03T15:58:52;4.10;18.50
29093;DHT22;16167;48.768;14.984;2023-02-03T16:01:22;4.20;13.30
29093;DHT22;16167;48.768;14.984;2023-02-03T16:03:53;4.20;14.20
29093;DHT22;16167;48.768;14.984;2023-02-03T16:06:27;4.30;8.20
29093;DHT22;16167;48.768;14.984;2023-02-03T16:08:57;4.40;1.00
29093;DHT22;16167;48.768;14.984;2023-02-03T16:11:28;4.40;2.60
29093;DHT22;16167;48.768;14.984;2023-02-03T16:13:58;4.40;1.20
29093;DHT22;16167;48.768;14.984;2023-02-03T16:16:29;4.40;5.30
29093;DHT22;16167;48.768;14.984;2023-02-03T16:19:01;4.40;1.00
29093;DHT22;16167;48.768;14.984;2023-02-03T16:21:34;4.50;1.00
29093;DHT22;16167;48.768;14.984;2023-02-03T16:24:04;4.50;1.00
29093;DHT22;16167;48.768;14.984;2023-02-03T16:26:32;4.60;1.00
29093;DHT22;16167;48.768;14.984;2023-02-03T16:29:20;4.60;1.00
29093;DHT22;16167;48.768;14.984;2023-02-03T16:32:16;4.70;1.00
29093;DHT22;16167;48.768;14.984;2023-02-03T16:35:03;4.60;1.00
29093;DHT22;16167;48.768;14.984;2023-02-03T16:37:54;4.60;1.00
29093;DHT22;16167;48.768;14.984;2023-02-03T16:40:40;4.70;1.00
29093;DHT22;16167;48.768;14.984;2023-02-03T16:43:25;4.60;1.00
29093;DHT22;16167;48.768;14.984;2023-02-03T16:46:11;4.60;1.30